createdAt,value
2018-08-18T00:00:19.901Z,22.76
2018-08-18T00:02:48.649Z,22.72
2018-08-18T00:05:18.052Z,22.73
2018-08-18T00:07:46.809Z,22.61
2018-08-18T00:10:23.483Z,22.58
2018-08-18T00:12:52.568Z,22.56
2018-08-18T00:15:21.203Z,22.54
2018-08-18T00:17:49.840Z,22.51
2018-08-18T00:20:24.776Z,22.50
2018-08-18T00:22:53.529Z,22.52
2018-08-18T00:25:22.186Z,22.52
2018-08-18T00:27:50.795Z,22.49
2018-08-18T00:30:24.686Z,22.57
2018-08-18T00:32:54.668Z,22.58
2018-08-18T00:35:23.498Z,22.52
2018-08-18T00:37:52.178Z,22.56
2018-08-18T00:40:20.753Z,22.58
2018-08-18T00:42:49.323Z,22.56
2018-08-18T00:45:18.225Z,22.56
2018-08-18T00:47:46.812Z,22.48
2018-08-18T00:50:30.554Z,22.51
2018-08-18T00:52:59.136Z,22.53
2018-08-18T00:55:28.398Z,22.47
2018-08-18T00:57:57.130Z,22.53
2018-08-18T01:00:25.724Z,22.52
2018-08-18T01:02:54.344Z,22.56
2018-08-18T01:05:23.027Z,22.56
2018-08-18T01:07:51.620Z,22.55
2018-08-18T01:10:20.223Z,22.55
2018-08-18T01:12:49.324Z,22.55
2018-08-18T01:15:21.879Z,22.55
2018-08-18T01:17:50.583Z,22.60
2018-08-18T01:20:19.198Z,22.48
2018-08-18T01:22:52.964Z,22.50
2018-08-18T01:25:21.555Z,22.54
2018-08-18T01:27:52.100Z,22.52
2018-08-18T01:30:20.791Z,22.55
2018-08-18T01:32:49.403Z,22.60
2018-08-18T01:35:18.260Z,22.54
2018-08-18T01:37:46.832Z,22.49
2018-08-18T01:40:15.414Z,22.43
2018-08-18T01:42:44.145Z,22.42
2018-08-18T01:45:12.739Z,22.47
2018-08-18T01:47:41.331Z,22.37
2018-08-18T01:50:15.403Z,22.38
2018-08-18T01:52:43.967Z,22.31
2018-08-18T01:55:14.048Z,22.32
2018-08-18T01:57:42.997Z,22.32
2018-08-18T02:00:24.179Z,22.32
2018-08-18T02:02:53.111Z,22.30
2018-08-18T02:05:21.716Z,22.23
2018-08-18T02:07:50.304Z,22.24
2018-08-18T02:10:19.236Z,22.23
2018-08-18T02:12:59.015Z,22.21
2018-08-18T02:15:27.975Z,22.17
2018-08-18T02:17:56.582Z,22.16
2018-08-18T02:20:25.152Z,22.13
2018-08-18T02:22:53.751Z,22.14
2018-08-18T02:25:22.327Z,22.13
2018-08-18T02:27:50.900Z,22.09
2018-08-18T02:30:20.755Z,22.02
2018-08-18T02:32:49.322Z,22.00
2018-08-18T02:35:17.948Z,21.95
2018-08-18T02:37:46.883Z,21.89
2018-08-18T02:40:17.471Z,21.86
2018-08-18T02:42:46.149Z,21.86
2018-08-18T02:45:15.730Z,21.86
2018-08-18T02:47:44.380Z,21.81
2018-08-18T02:50:14.394Z,21.76
2018-08-18T02:52:42.999Z,21.78
2018-08-18T02:55:12.490Z,21.80
2018-08-18T02:57:42.526Z,21.76
2018-08-18T03:00:22.943Z,21.78
2018-08-18T03:02:51.700Z,21.72
2018-08-18T03:05:20.319Z,21.68
2018-08-18T03:07:52.279Z,21.67
2018-08-18T03:10:22.832Z,21.62
2018-08-18T03:12:52.503Z,21.56
2018-08-18T03:15:52.323Z,21.51
2018-08-18T03:18:32.859Z,21.54
2018-08-18T03:21:02.345Z,21.52
2018-08-18T03:23:31.599Z,21.51
2018-08-18T03:26:00.508Z,21.48
2018-08-18T03:28:30.511Z,21.46
2018-08-18T03:30:59.084Z,21.46
2018-08-18T03:33:28.015Z,21.49
2018-08-18T03:35:56.579Z,21.50
2018-08-18T03:38:25.123Z,21.51
2018-08-18T03:40:53.971Z,21.51
2018-08-18T03:43:22.543Z,21.48
2018-08-18T03:45:51.116Z,21.41
2018-08-18T03:48:19.823Z,21.35
2018-08-18T03:50:49.008Z,21.31
2018-08-18T03:53:18.540Z,21.31
2018-08-18T03:55:47.264Z,21.31
2018-08-18T03:58:15.840Z,21.32
2018-08-18T04:00:44.409Z,21.28
2018-08-18T04:03:13.075Z,21.25
2018-08-18T04:05:41.639Z,21.27
2018-08-18T04:08:10.219Z,21.26
2018-08-18T04:10:38.927Z,21.24
2018-08-18T04:13:07.507Z,21.16
2018-08-18T04:15:36.068Z,21.14
2018-08-18T04:18:08.799Z,21.09
2018-08-18T04:20:37.367Z,21.09
2018-08-18T04:23:05.932Z,21.09
2018-08-18T04:25:34.624Z,21.10
2018-08-18T04:28:03.167Z,21.09
2018-08-18T04:30:31.736Z,21.07
2018-08-18T04:33:02.628Z,21.10
2018-08-18T04:35:32.023Z,21.08
2018-08-18T04:38:02.435Z,21.06
2018-08-18T04:40:31.098Z,21.03
2018-08-18T04:43:00.946Z,20.98
2018-08-18T04:45:29.592Z,21.00
2018-08-18T04:47:58.176Z,20.98
2018-08-18T04:50:26.798Z,20.95
2018-08-18T04:52:55.855Z,20.90
2018-08-18T04:55:24.460Z,20.82
2018-08-18T04:57:53.060Z,20.81
2018-08-18T05:00:21.748Z,20.79
2018-08-18T05:02:57.908Z,20.81
2018-08-18T05:05:28.352Z,20.80
2018-08-18T05:07:59.379Z,20.82
2018-08-18T05:10:28.817Z,20.85
2018-08-18T05:12:57.416Z,20.85
2018-08-18T05:15:25.995Z,20.86
2018-08-18T05:17:54.759Z,20.85
2018-08-18T05:20:26.183Z,20.87
2018-08-18T05:22:54.851Z,20.93
2018-08-18T05:25:29.412Z,20.97
2018-08-18T05:27:58.596Z,21.01
2018-08-18T05:30:27.188Z,21.05
2018-08-18T05:32:55.758Z,21.05
2018-08-18T05:35:24.483Z,21.03
2018-08-18T05:37:53.039Z,21.07
2018-08-18T05:40:21.608Z,21.11
2018-08-18T05:42:50.222Z,21.16
2018-08-18T05:45:26.647Z,21.13
2018-08-18T05:47:55.660Z,21.16
2018-08-18T05:50:26.531Z,21.14
2018-08-18T05:52:58.284Z,21.21
2018-08-18T05:55:27.161Z,21.22
2018-08-18T05:57:55.740Z,21.20
2018-08-18T06:00:25.839Z,21.24
2018-08-18T06:03:00.583Z,21.28
2018-08-18T06:05:30.523Z,21.28
2018-08-18T06:08:00.206Z,21.30
2018-08-18T06:10:28.831Z,21.33
2018-08-18T06:12:58.484Z,21.33
2018-08-18T06:15:27.060Z,21.35
2018-08-18T06:17:55.669Z,21.31
2018-08-18T06:20:24.265Z,21.36
2018-08-18T06:22:52.836Z,21.33
2018-08-18T06:25:21.462Z,21.39
2018-08-18T06:27:50.079Z,21.42
2018-08-18T06:30:19.951Z,21.45
2018-08-18T06:32:48.511Z,21.49
2018-08-18T06:35:17.195Z,21.50
2018-08-18T06:37:50.384Z,21.55
2018-08-18T06:40:19.151Z,21.58
2018-08-18T06:42:47.786Z,21.63
2018-08-18T06:45:19.033Z,21.65
2018-08-18T06:47:47.643Z,21.68
2018-08-18T06:50:17.540Z,21.70
2018-08-18T06:52:47.032Z,21.78
2018-08-18T06:55:17.903Z,21.83
2018-08-18T06:57:48.797Z,21.83
2018-08-18T07:00:19.775Z,21.84
2018-08-18T07:02:48.461Z,21.92
2018-08-18T07:05:18.270Z,22.02
2018-08-18T07:07:47.871Z,22.10
2018-08-18T07:10:27.018Z,22.16
2018-08-18T07:12:57.055Z,22.19
2018-08-18T07:15:27.769Z,22.20
2018-08-18T07:17:56.392Z,22.20
2018-08-18T07:20:25.012Z,22.21
2018-08-18T07:22:54.028Z,22.27
2018-08-18T07:25:22.854Z,22.33
2018-08-18T07:27:57.864Z,22.39
2018-08-18T07:30:27.248Z,22.42
2018-08-18T07:32:55.834Z,22.49
2018-08-18T07:35:24.420Z,22.40
2018-08-18T07:37:53.051Z,22.41
2018-08-18T07:40:43.759Z,22.54
2018-08-18T07:43:15.020Z,22.64
2018-08-18T07:45:43.743Z,22.69
2018-08-18T07:48:12.487Z,22.65
2018-08-18T07:50:41.131Z,22.82
2018-08-18T07:53:09.899Z,22.94
2018-08-18T07:55:38.456Z,23.06
2018-08-18T07:58:12.039Z,23.14
2018-08-18T08:00:41.148Z,23.43
2018-08-18T08:03:11.280Z,23.71
2018-08-18T08:05:39.984Z,24.15
2018-08-18T08:08:08.689Z,24.79
2018-08-18T08:10:37.429Z,25.46
2018-08-18T08:13:06.054Z,25.70
2018-08-18T08:15:34.679Z,25.63
2018-08-18T08:18:03.462Z,26.15
2018-08-18T08:20:32.061Z,26.34
2018-08-18T08:23:00.744Z,26.40
2018-08-18T08:25:29.494Z,26.73
2018-08-18T08:27:58.097Z,26.77
2018-08-18T08:30:27.351Z,26.50
2018-08-18T08:32:56.056Z,27.04
2018-08-18T08:35:24.664Z,27.50
2018-08-18T08:37:54.483Z,27.60
2018-08-18T08:40:24.548Z,27.82
2018-08-18T08:42:53.230Z,27.81
2018-08-18T08:45:23.084Z,28.10
2018-08-18T08:47:51.739Z,27.92
2018-08-18T08:50:22.419Z,27.88
2018-08-18T08:52:52.632Z,28.46
2018-08-18T08:55:22.647Z,28.66
2018-08-18T08:57:51.243Z,28.71
2018-08-18T09:00:19.883Z,29.08
2018-08-18T09:02:48.527Z,29.20
2018-08-18T09:05:17.594Z,29.31
2018-08-18T09:07:46.204Z,28.46
2018-08-18T09:10:15.480Z,28.06
2018-08-18T09:12:44.116Z,28.44
2018-08-18T09:15:14.275Z,28.93
2018-08-18T09:17:42.881Z,28.40
2018-08-18T09:20:14.229Z,28.67
2018-08-18T09:22:59.690Z,29.16
2018-08-18T09:25:30.032Z,29.65
2018-08-18T09:28:00.210Z,29.66
2018-08-18T09:30:31.089Z,30.16
2018-08-18T09:33:04.204Z,30.67
2018-08-18T09:35:47.720Z,30.88
2018-08-18T09:38:16.319Z,30.39
2018-08-18T09:40:45.007Z,30.40
2018-08-18T09:43:17.796Z,30.53
2018-08-18T09:45:46.399Z,30.91
2018-08-18T09:48:15.064Z,30.92
2018-08-18T09:50:43.667Z,31.09
2018-08-18T09:53:12.263Z,30.71
2018-08-18T09:55:40.856Z,30.95
2018-08-18T09:58:10.131Z,31.38
2018-08-18T10:00:40.883Z,31.65
2018-08-18T10:03:10.328Z,31.75
2018-08-18T10:05:39.552Z,31.70
2018-08-18T10:08:08.711Z,32.18
2018-08-18T10:10:37.336Z,32.03
2018-08-18T10:13:06.356Z,31.23
2018-08-18T10:15:35.256Z,31.81
2018-08-18T10:18:03.920Z,32.21
2018-08-18T10:20:37.665Z,32.35
2018-08-18T10:23:06.472Z,32.11
2018-08-18T10:25:35.051Z,31.87
2018-08-18T10:28:03.656Z,32.02
2018-08-18T10:30:32.284Z,31.31
2018-08-18T10:33:00.935Z,30.96
2018-08-18T10:35:30.836Z,31.27
2018-08-18T10:38:01.147Z,31.80
2018-08-18T10:40:29.768Z,31.66
2018-08-18T10:42:58.367Z,31.15
2018-08-18T10:45:26.984Z,31.00
2018-08-18T10:47:55.579Z,30.32
2018-08-18T10:50:36.336Z,30.40
2018-08-18T10:53:04.923Z,30.59
2018-08-18T10:55:33.503Z,30.53
2018-08-18T10:58:07.608Z,31.18
2018-08-18T11:00:36.264Z,30.90
2018-08-18T11:03:06.128Z,31.38
2018-08-18T11:05:34.845Z,31.43
2018-08-18T11:08:07.096Z,31.15
2018-08-18T11:10:40.043Z,30.52
2018-08-18T11:13:08.682Z,30.53
2018-08-18T11:15:37.312Z,30.17
2018-08-18T11:18:06.080Z,30.14
2018-08-18T11:20:35.616Z,30.17
2018-08-18T11:23:07.870Z,29.75
2018-08-18T11:25:39.712Z,30.34
2018-08-18T11:28:09.691Z,31.33
2018-08-18T11:30:38.355Z,31.68
2018-08-18T11:33:07.195Z,32.23
2018-08-18T11:35:36.307Z,32.77
2018-08-18T11:38:11.477Z,34.30
2018-08-18T11:40:40.108Z,34.40
2018-08-18T11:43:11.721Z,35.71
2018-08-18T11:45:41.398Z,36.16
2018-08-18T11:48:16.232Z,35.45
2018-08-18T11:50:45.486Z,34.02
2018-08-18T11:53:14.116Z,33.49
2018-08-18T11:55:42.832Z,32.50
2018-08-18T11:58:13.267Z,31.44
2018-08-18T12:00:47.221Z,31.01
2018-08-18T12:03:17.488Z,30.78
2018-08-18T12:06:01.628Z,30.05
2018-08-18T12:08:32.511Z,29.80
2018-08-18T12:11:03.644Z,29.66
2018-08-18T12:13:37.376Z,29.68
2018-08-18T12:16:09.782Z,29.57
2018-08-18T12:18:40.731Z,29.29
2018-08-18T12:21:09.475Z,29.50
2018-08-18T12:23:39.491Z,29.49
2018-08-18T12:26:11.316Z,29.60
2018-08-18T12:28:50.368Z,29.73
2018-08-18T12:31:21.344Z,29.75
2018-08-18T12:33:49.936Z,29.94
2018-08-18T12:36:18.655Z,29.83
2018-08-18T12:38:49.220Z,29.99
2018-08-18T12:41:17.822Z,29.88
2018-08-18T12:43:49.031Z,29.79
2018-08-18T12:46:19.981Z,29.57
2018-08-18T12:48:50.252Z,29.52
2018-08-18T12:51:19.569Z,29.55
2018-08-18T12:53:52.580Z,29.49
2018-08-18T12:56:27.420Z,29.33
2018-08-18T12:58:56.309Z,29.39
2018-08-18T13:01:37.136Z,29.57
2018-08-18T13:04:08.324Z,29.73
2018-08-18T13:06:55.591Z,29.67
2018-08-18T13:09:25.499Z,29.52
2018-08-18T13:11:55.452Z,29.49
2018-08-18T13:14:26.966Z,29.60
2018-08-18T13:16:55.480Z,29.63
2018-08-18T13:19:25.939Z,29.52
2018-08-18T13:21:54.552Z,29.61
2018-08-18T13:24:23.132Z,29.49
2018-08-18T13:26:51.764Z,29.54
2018-08-18T13:29:20.315Z,29.34
2018-08-18T13:31:48.884Z,29.44
2018-08-18T13:34:18.786Z,29.43
2018-08-18T13:36:47.949Z,29.48
2018-08-18T13:39:19.038Z,29.58
2018-08-18T13:41:48.556Z,29.44
2018-08-18T13:44:26.677Z,29.32
2018-08-18T13:46:55.321Z,29.31
2018-08-18T13:49:25.341Z,29.07
2018-08-18T13:51:54.104Z,29.12
2018-08-18T13:54:22.687Z,29.39
2018-08-18T13:56:51.271Z,29.35
2018-08-18T13:59:42.533Z,29.18
2018-08-18T14:02:11.540Z,29.18
2018-08-18T14:04:41.019Z,29.08
2018-08-18T14:07:09.977Z,29.25
2018-08-18T14:09:39.159Z,29.32
2018-08-18T14:12:13.226Z,29.16
2018-08-18T14:14:41.935Z,29.20
2018-08-18T14:17:11.071Z,29.21
2018-08-18T14:19:39.787Z,29.28
2018-08-18T14:22:09.999Z,29.28
2018-08-18T14:24:39.736Z,29.26
2018-08-18T14:27:17.200Z,29.18
2018-08-18T14:29:45.825Z,29.23
2018-08-18T14:32:31.832Z,29.20
2018-08-18T14:35:07.488Z,29.19
2018-08-18T14:37:37.936Z,29.04
2018-08-18T14:40:17.400Z,29.21
2018-08-18T14:42:47.499Z,29.17
2018-08-18T14:45:18.399Z,29.23
2018-08-18T14:47:48.075Z,29.29
2018-08-18T14:50:23.352Z,29.25
2018-08-18T14:52:51.928Z,29.04
2018-08-18T14:55:20.496Z,29.07
2018-08-18T14:57:54.475Z,29.18
2018-08-18T15:00:23.088Z,29.06
2018-08-18T15:02:51.856Z,28.91
2018-08-18T15:05:20.591Z,28.91
2018-08-18T15:07:52.319Z,29.04
2018-08-18T15:10:37.792Z,28.90
2018-08-18T15:13:07.210Z,28.75
2018-08-18T15:15:36.322Z,28.74
2018-08-18T15:18:06.584Z,28.75
2018-08-18T15:20:36.296Z,28.77
2018-08-18T15:23:05.774Z,28.83
2018-08-18T15:25:35.339Z,28.72
2018-08-18T15:28:10.376Z,28.67
2018-08-18T15:30:40.247Z,28.62
2018-08-18T15:33:10.310Z,28.55
2018-08-18T15:35:40.244Z,28.62
2018-08-18T15:38:09.744Z,28.63
2018-08-18T15:40:38.424Z,28.53
2018-08-18T15:43:07.088Z,28.63
2018-08-18T15:45:46.835Z,28.66
2018-08-18T15:48:15.445Z,28.78
2018-08-18T15:50:44.000Z,28.69
2018-08-18T15:53:12.911Z,28.71
2018-08-18T15:55:41.475Z,28.70
2018-08-18T15:58:10.043Z,28.80
2018-08-18T16:00:38.862Z,28.70
2018-08-18T16:03:07.487Z,28.72
2018-08-18T16:05:36.072Z,28.58
2018-08-18T16:08:04.827Z,28.50
2018-08-18T16:10:33.387Z,28.47
2018-08-18T16:13:01.952Z,28.45
2018-08-18T16:15:30.646Z,28.57
2018-08-18T16:17:59.248Z,28.58
2018-08-18T16:20:27.951Z,28.64
2018-08-18T16:22:57.892Z,28.61
2018-08-18T16:25:35.319Z,28.54
2018-08-18T16:28:05.319Z,28.31
2018-08-18T16:30:34.976Z,28.33
2018-08-18T16:33:12.803Z,28.28
2018-08-18T16:35:42.763Z,28.27
2018-08-18T16:38:11.897Z,28.23
2018-08-18T16:40:40.888Z,28.31
2018-08-18T16:43:10.927Z,28.32
2018-08-18T16:45:39.671Z,28.32
2018-08-18T16:48:10.142Z,28.28
2018-08-18T16:50:40.657Z,28.25
2018-08-18T16:53:11.670Z,28.18
2018-08-18T16:55:43.952Z,28.02
2018-08-18T16:58:12.551Z,28.08
2018-08-18T17:00:58.047Z,28.08
2018-08-18T17:03:34.852Z,28.14
2018-08-18T17:06:04.863Z,28.12
2018-08-18T17:08:33.457Z,28.03
2018-08-18T17:11:02.027Z,28.02
2018-08-18T17:13:34.377Z,28.07
2018-08-18T17:16:03.482Z,28.06
2018-08-18T17:18:32.087Z,28.07
2018-08-18T17:21:02.007Z,28.01
2018-08-18T17:23:32.380Z,27.96
2018-08-18T17:26:01.052Z,27.95
2018-08-18T17:28:30.516Z,27.98
2018-08-18T17:31:01.236Z,28.00
2018-08-18T17:33:29.955Z,27.95
2018-08-18T17:35:58.760Z,27.97
2018-08-18T17:38:27.380Z,27.95
2018-08-18T17:40:55.969Z,27.90
2018-08-18T17:43:24.584Z,27.90
2018-08-18T17:45:55.488Z,27.81
2018-08-18T17:48:25.415Z,27.81
2018-08-18T17:50:54.734Z,27.76
2018-08-18T17:53:23.687Z,27.73
2018-08-18T17:55:57.447Z,27.73
2018-08-18T17:58:26.783Z,27.68
2018-08-18T18:00:55.518Z,27.65
2018-08-18T18:03:24.155Z,27.60
2018-08-18T18:05:53.961Z,27.56
2018-08-18T18:08:22.612Z,27.53
2018-08-18T18:10:51.274Z,27.48
2018-08-18T18:13:24.025Z,27.48
2018-08-18T18:15:52.775Z,27.40
2018-08-18T18:18:22.412Z,27.36
2018-08-18T18:20:52.483Z,27.36
2018-08-18T18:23:21.575Z,27.33
2018-08-18T18:25:50.171Z,27.24
2018-08-18T18:28:18.891Z,27.26
2018-08-18T18:30:47.622Z,27.17
2018-08-18T18:33:16.200Z,27.09
2018-08-18T18:35:44.777Z,27.09
2018-08-18T18:38:13.368Z,27.09
2018-08-18T18:40:43.505Z,27.06
2018-08-18T18:43:12.226Z,27.00
2018-08-18T18:45:40.950Z,27.00
2018-08-18T18:48:12.476Z,26.94
2018-08-18T18:50:41.099Z,26.93
2018-08-18T18:53:09.704Z,26.88
2018-08-18T18:55:44.537Z,26.83
2018-08-18T18:58:14.360Z,26.76
2018-08-18T19:01:11.253Z,26.73
2018-08-18T19:03:39.826Z,26.72
2018-08-18T19:06:08.432Z,26.71
2018-08-18T19:08:51.092Z,26.61
2018-08-18T19:11:19.673Z,26.62
2018-08-18T19:13:48.272Z,26.60
2018-08-18T19:16:16.945Z,26.58
2018-08-18T19:18:45.452Z,26.54
2018-08-18T19:21:14.013Z,26.45
2018-08-18T19:23:42.703Z,26.39
2018-08-18T19:26:11.440Z,26.38
2018-08-18T19:28:40.128Z,26.36
2018-08-18T19:31:08.926Z,26.33
2018-08-18T19:33:37.495Z,26.29
2018-08-18T19:36:06.076Z,26.27
2018-08-18T19:38:34.676Z,26.26
2018-08-18T19:41:03.235Z,26.21
2018-08-18T19:43:31.852Z,26.20
2018-08-18T19:46:00.523Z,26.14
2018-08-18T19:48:29.071Z,26.15
2018-08-18T19:51:04.681Z,26.10
2018-08-18T19:53:34.817Z,26.08
2018-08-18T19:56:04.401Z,26.11
2018-08-18T19:58:32.989Z,26.04
2018-08-18T20:01:01.581Z,25.99
2018-08-18T20:03:30.336Z,25.98
2018-08-18T20:05:59.019Z,25.98
2018-08-18T20:08:28.271Z,25.98
2018-08-18T20:10:59.360Z,26.03
2018-08-18T20:13:29.067Z,26.03
2018-08-18T20:15:59.344Z,26.04
2018-08-18T20:18:28.095Z,26.08
2018-08-18T20:20:58.943Z,26.08
2018-08-18T20:23:27.567Z,26.07
2018-08-18T20:25:56.488Z,26.05
2018-08-18T20:28:25.298Z,26.05
2018-08-18T20:30:53.876Z,26.01
2018-08-18T20:33:22.452Z,25.99
2018-08-18T20:35:51.068Z,25.90
2018-08-18T20:38:19.644Z,25.94
2018-08-18T20:40:48.203Z,25.94
2018-08-18T20:43:16.836Z,25.92
2018-08-18T20:45:48.727Z,25.88
2018-08-18T20:48:20.844Z,25.82
2018-08-18T20:50:49.676Z,25.78
2018-08-18T20:53:18.836Z,25.76
2018-08-18T20:55:55.072Z,25.76
2018-08-18T20:58:23.775Z,25.77
2018-08-18T21:00:52.336Z,25.72
2018-08-18T21:03:20.940Z,25.73
2018-08-18T21:05:49.536Z,25.73
2018-08-18T21:08:19.733Z,25.74
2018-08-18T21:10:48.830Z,25.71
2018-08-18T21:13:17.424Z,25.75
2018-08-18T21:15:46.012Z,25.78
2018-08-18T21:18:17.935Z,25.81
2018-08-18T21:20:46.999Z,25.82
2018-08-18T21:23:16.094Z,25.81
2018-08-18T21:25:47.445Z,25.80
2018-08-18T21:28:17.250Z,25.81
2018-08-18T21:30:45.816Z,25.81
2018-08-18T21:33:14.492Z,25.81
2018-08-18T21:35:43.095Z,25.82
2018-08-18T21:38:11.776Z,25.83
2018-08-18T21:40:40.519Z,25.82
2018-08-18T21:43:42.338Z,25.80
2018-08-18T21:46:11.032Z,25.78
2018-08-18T21:48:53.499Z,25.77
2018-08-18T21:51:25.372Z,25.75
2018-08-18T21:53:53.925Z,25.76
2018-08-18T21:56:22.508Z,25.76
2018-08-18T21:58:51.127Z,25.76
2018-08-18T22:01:23.020Z,25.74
2018-08-18T22:03:54.552Z,25.73
2018-08-18T22:06:23.180Z,25.73
2018-08-18T22:08:51.812Z,25.68
2018-08-18T22:11:21.353Z,25.69
2018-08-18T22:13:55.112Z,25.72
2018-08-18T22:16:24.360Z,25.67
2018-08-18T22:19:03.144Z,25.67
2018-08-18T22:21:32.537Z,25.67
2018-08-18T22:24:02.744Z,25.64
2018-08-18T22:26:31.475Z,25.61
2018-08-18T22:29:02.295Z,25.61
2018-08-18T22:31:31.483Z,25.62
2018-08-18T22:34:01.431Z,25.55
2018-08-18T22:36:32.522Z,25.58
2018-08-18T22:39:01.667Z,25.57
2018-08-18T22:41:30.303Z,25.55
2018-08-18T22:43:59.471Z,25.54
2018-08-18T22:46:29.769Z,25.51
2018-08-18T22:48:58.435Z,25.51
2018-08-18T22:51:27.020Z,25.49
2018-08-18T22:53:56.860Z,25.50
2018-08-18T22:56:30.583Z,25.48
2018-08-18T22:59:04.379Z,25.49
2018-08-18T23:01:34.088Z,25.49
2018-08-18T23:04:03.702Z,25.43
2018-08-18T23:06:35.860Z,25.44
2018-08-18T23:09:06.748Z,25.44
2018-08-18T23:11:35.339Z,25.42
2018-08-18T23:14:03.987Z,25.37
2018-08-18T23:16:32.559Z,25.34
2018-08-18T23:19:01.144Z,25.31
2018-08-18T23:21:30.739Z,25.30
2018-08-18T23:24:01.858Z,25.24
2018-08-18T23:26:30.491Z,25.21
2018-08-18T23:28:59.072Z,25.22
2018-08-18T23:31:28.048Z,25.21
2018-08-18T23:33:56.672Z,25.16
2018-08-18T23:36:25.247Z,25.06
2018-08-18T23:39:00.432Z,25.09
2018-08-18T23:41:28.996Z,25.08
2018-08-18T23:43:57.568Z,25.08
2018-08-18T23:46:26.172Z,25.07
2018-08-18T23:48:54.763Z,25.09
2018-08-18T23:51:28.559Z,25.09
2018-08-18T23:53:57.123Z,25.03
2018-08-18T23:56:29.048Z,24.97
2018-08-18T23:58:58.182Z,24.97
